Time;durP1;ratioP1;P1;durP2;ratioP2;P2;SDS_P1;SDS_P2;PMS_P1;PMS_P2;Temp;Humidity;BMP_temperature;BMP_pressure;BME280_temperature;BME280_humidity;BME280_pressure;Samples;Min_cycle;Max_cycle;Signal;HPM_P1;HPM_P2
2021/06/25 00:01:42;;;;;;;21.93;17.13;;;;;;;;;;734939;187;920336;-65
2021/06/25 00:04:08;;;;;;;22.30;15.30;;;;;;;;;;736381;187;919493;-62
2021/06/25 00:06:34;;;;;;;18.77;14.83;;;;;;;;;;733898;188;919591;-62
2021/06/25 00:09:00;;;;;;;16.30;11.10;;;;;;;;;;741491;187;1322513;-62
2021/06/25 00:11:26;;;;;;;14.00;10.90;;;;;;;;;;742427;187;918772;-63
2021/06/25 00:13:53;;;;;;;13.63;10.00;;;;;;;;;;731016;188;920108;-62
2021/06/25 00:16:17;;;;;;;11.33;7.90;;;;;;;;;;741995;187;919345;-63
2021/06/25 00:18:43;;;;;;;15.67;8.60;;;;;;;;;;735622;188;920363;-63
2021/06/25 00:21:09;;;;;;;11.70;8.60;;;;;;;;;;739590;187;926178;-63
2021/06/25 00:23:35;;;;;;;16.53;14.20;;;;;;;;;;737313;188;919133;-63
2021/06/25 00:26:01;;;;;;;18.53;16.60;;;;;;;;;;735599;188;919373;-63
2021/06/25 00:28:27;;;;;;;21.50;16.17;;;;;;;;;;734136;188;1022312;-62
2021/06/25 00:30:53;;;;;;;19.23;14.70;;;;;;;;;;745230;186;914490;-63
2021/06/25 00:33:19;;;;;;;18.77;14.10;;;;;;;;;;740317;187;918866;-63
2021/06/25 00:35:45;;;;;;;17.90;15.10;;;;;;;;;;739893;188;920424;-62
2021/06/25 00:38:10;;;;;;;17.30;12.80;;;;;;;;;;736422;187;919408;-63
2021/06/25 00:40:36;;;;;;;20.57;13.00;;;;;;;;;;744497;187;920087;-64
2021/06/25 00:43:02;;;;;;;12.50;10.93;;;;;;;;;;739832;187;918889;-63
2021/06/25 00:45:28;;;;;;;18.93;13.10;;;;;;;;;;740746;187;875063;-62
2021/06/25 00:47:54;;;;;;;13.50;10.23;;;;;;;;;;738408;188;919318;-63
2021/06/25 00:50:20;;;;;;;14.30;9.30;;;;;;;;;;737536;187;919478;-63
2021/06/25 00:52:46;;;;;;;11.80;9.00;;;;;;;;;;739783;187;919518;-63
2021/06/25 00:55:12;;;;;;;12.43;9.80;;;;;;;;;;738970;187;919964;-63
2021/06/25 00:57:38;;;;;;;11.20;9.57;;;;;;;;;;731739;188;919033;-65
2021/06/25 01:00:04;;;;;;;12.67;9.30;;;;;;;;;;734684;188;923416;-64
2021/06/25 01:02:30;;;;;;;16.53;9.87;;;;;;;;;;736299;187;918812;-64
2021/06/25 01:04:56;;;;;;;12.37;9.33;;;;;;;;;;739911;188;918692;-64
2021/06/25 01:07:22;;;;;;;11.10;8.53;;;;;;;;;;736707;187;919392;-63
2021/06/25 01:09:48;;;;;;;11.93;8.35;;;;;;;;;;734197;190;919389;-61
2021/06/25 01:12:13;;;;;;;8.30;7.30;;;;;;;;;;742923;187;918907;-65
2021/06/25 01:14:39;;;;;;;13.00;7.67;;;;;;;;;;734230;187;919283;-63
2021/06/25 01:17:07;;;;;;;16.97;8.63;;;;;;;;;;732859;187;920047;-63
2021/06/25 01:19:32;;;;;;;11.53;7.77;;;;;;;;;;734948;184;919160;-64
2021/06/25 01:21:57;;;;;;;14.27;9.20;;;;;;;;;;737368;186;920115;-64
2021/06/25 01:24:23;;;;;;;16.13;8.53;;;;;;;;;;723574;190;918885;-64
2021/06/25 01:26:49;;;;;;;11.90;8.10;;;;;;;;;;738051;186;1021741;-62
2021/06/25 01:29:15;;;;;;;9.13;7.43;;;;;;;;;;751856;185;919369;-65
2021/06/25 01:31:41;;;;;;;16.23;8.00;;;;;;;;;;747186;186;919871;-65
2021/06/25 01:34:07;;;;;;;10.60;7.80;;;;;;;;;;736044;187;919845;-63
2021/06/25 01:36:32;;;;;;;9.07;8.13;;;;;;;;;;740238;188;918181;-63
2021/06/25 01:38:59;;;;;;;18.57;8.70;;;;;;;;;;744659;187;920387;-63
2021/06/25 01:41:25;;;;;;;13.30;10.13;;;;;;;;;;735426;187;919193;-65
2021/06/25 01:43:51;;;;;;;13.67;11.00;;;;;;;;;;742593;187;918655;-64
2021/06/25 01:46:18;;;;;;;14.00;10.07;;;;;;;;;;738866;188;918949;-62
2021/06/25 01:48:43;;;;;;;13.77;10.75;;;;;;;;;;735602;188;920306;-63
2021/06/25 01:51:09;;;;;;;14.10;11.80;;;;;;;;;;740829;186;918706;-66
2021/06/25 01:53:35;;;;;;;16.50;11.33;;;;;;;;;;721500;193;917202;-64
2021/06/25 01:56:02;;;;;;;13.57;10.73;;;;;;;;;;729685;191;920606;-63
2021/06/25 01:58:28;;;;;;;13.68;11.48;;;;;;;;;;729692;190;1021336;-62
2021/06/25 02:00:54;;;;;;;20.50;13.10;;;;;;;;;;748481;185;918567;-63
2021/06/25 02:03:20;;;;;;;16.73;13.27;;;;;;;;;;736144;187;919517;-64
2021/06/25 02:05:46;;;;;;;27.30;12.70;;;;;;;;;;741155;187;920512;-63
2021/06/25 02:08:12;;;;;;;18.80;16.37;;;;;;;;;;738201;188;918327;-63
2021/06/25 02:10:38;;;;;;;17.80;14.57;;;;;;;;;;735282;188;928319;-64
2021/06/25 02:13:04;;;;;;;18.60;14.40;;;;;;;;;;740397;187;916129;-62
2021/06/25 02:15:30;;;;;;;19.90;15.30;;;;;;;;;;735563;188;916295;-63
2021/06/25 02:17:56;;;;;;;19.00;13.67;;;;;;;;;;750871;185;916811;-63
2021/06/25 02:20:21;;;;;;;18.83;15.37;;;;;;;;;;745861;187;919849;-63
2021/06/25 02:22:47;;;;;;;22.90;15.07;;;;;;;;;;738253;187;920245;-63
2021/06/25 02:25:13;;;;;;;27.50;15.60;;;;;;;;;;725907;189;919315;-63
2021/06/25 02:27:39;;;;;;;18.67;15.90;;;;;;;;;;729702;189;920248;-63
2021/06/25 02:30:06;;;;;;;30.40;21.70;;;;;;;;;;733039;189;919244;-62
2021/06/25 02:32:31;;;;;;;34.03;23.25;;;;;;;;;;749312;187;919601;-63
2021/06/25 02:34:57;;;;;;;36.87;23.30;;;;;;;;;;743612;187;918552;-63
2021/06/25 02:37:23;;;;;;;34.80;24.27;;;;;;;;;;736903;187;920264;-63
2021/06/25 02:39:49;;;;;;;36.70;24.77;;;;;;;;;;742279;188;919085;-63
2021/06/25 02:42:15;;;;;;;35.03;25.20;;;;;;;;;;741735;187;920068;-63
2021/06/25 02:44:41;;;;;;;38.03;24.87;;;;;;;;;;734701;187;919661;-63
2021/06/25 02:47:06;;;;;;;38.83;26.53;;;;;;;;;;717999;190;921065;-63
2021/06/25 02:49:32;;;;;;;39.20;26.27;;;;;;;;;;732639;187;919673;-64
2021/06/25 02:51:58;;;;;;;40.47;25.40;;;;;;;;;;745746;186;919367;-63
2021/06/25 02:54:24;;;;;;;36.33;25.30;;;;;;;;;;736917;188;919919;-65
2021/06/25 02:56:50;;;;;;;35.27;25.97;;;;;;;;;;738106;187;918724;-63
2021/06/25 02:59:16;;;;;;;37.47;25.50;;;;;;;;;;736368;187;919408;-63
2021/06/25 03:01:41;;;;;;;36.50;25.07;;;;;;;;;;740937;187;919139;-64
2021/06/25 03:04:07;;;;;;;43.93;26.57;;;;;;;;;;746157;186;919118;-64
2021/06/25 03:06:33;;;;;;;34.63;27.63;;;;;;;;;;740291;186;925457;-64
2021/06/25 03:08:59;;;;;;;33.77;25.57;;;;;;;;;;733757;190;919221;-64
2021/06/25 03:11:25;;;;;;;33.65;25.55;;;;;;;;;;733439;188;919932;-64
2021/06/25 03:13:51;;;;;;;45.27;27.40;;;;;;;;;;748779;186;919665;-64
2021/06/25 03:16:17;;;;;;;37.07;26.53;;;;;;;;;;735676;187;919531;-64
2021/06/25 03:18:42;;;;;;;41.43;26.43;;;;;;;;;;742278;187;919508;-64
2021/06/25 03:21:08;;;;;;;42.73;25.90;;;;;;;;;;745439;186;1781935;-65
2021/06/25 03:23:34;;;;;;;32.37;24.90;;;;;;;;;;735055;188;919977;-65
2021/06/25 03:26:00;;;;;;;37.73;25.70;;;;;;;;;;739277;187;919556;-65
2021/06/25 03:28:26;;;;;;;37.63;25.07;;;;;;;;;;742138;188;923535;-65
2021/06/25 03:30:52;;;;;;;40.57;26.53;;;;;;;;;;732729;188;920862;-65
2021/06/25 03:33:17;;;;;;;38.00;27.00;;;;;;;;;;735867;188;919373;-65
2021/06/25 03:35:43;;;;;;;37.43;25.87;;;;;;;;;;745125;187;918409;-65
2021/06/25 03:38:09;;;;;;;32.67;25.55;;;;;;;;;;737346;187;919021;-66
2021/06/25 03:40:35;;;;;;;31.70;23.03;;;;;;;;;;739391;187;919182;-66
2021/06/25 03:43:01;;;;;;;32.90;25.00;;;;;;;;;;737409;187;1021842;-66
2021/06/25 03:45:27;;;;;;;37.77;26.27;;;;;;;;;;740720;188;919443;-66
2021/06/25 03:47:53;;;;;;;35.00;25.90;;;;;;;;;;732187;187;919697;-66
2021/06/25 03:50:18;;;;;;;32.80;23.90;;;;;;;;;;735896;187;919583;-66
2021/06/25 03:52:44;;;;;;;34.13;26.33;;;;;;;;;;744697;188;879266;-64
2021/06/25 03:55:10;;;;;;;39.53;26.37;;;;;;;;;;737108;187;918306;-65
2021/06/25 03:57:37;;;;;;;39.57;25.03;;;;;;;;;;737024;186;921496;-65
2021/06/25 04:00:03;;;;;;;39.15;23.42;;;;;;;;;;741758;187;910323;-66
2021/06/25 04:02:29;;;;;;;35.03;24.50;;;;;;;;;;737419;188;920172;-66
2021/06/25 04:04:55;;;;;;;36.67;27.60;;;;;;;;;;734852;188;1022219;-66
2021/06/25 04:07:22;;;;;;;37.83;25.90;;;;;;;;;;739777;188;873469;-64
2021/06/25 04:09:47;;;;;;;39.10;28.30;;;;;;;;;;743105;188;629306;-67
2021/06/25 04:12:13;;;;;;;38.73;27.00;;;;;;;;;;739591;186;924442;-65
2021/06/25 04:14:38;;;;;;;46.67;24.27;;;;;;;;;;742431;186;942159;-66
2021/06/25 04:17:04;;;;;;;34.17;24.37;;;;;;;;;;744350;187;813621;-67
2021/06/25 04:19:30;;;;;;;34.67;25.43;;;;;;;;;;741650;186;672219;-66
2021/06/25 04:21:56;;;;;;;35.23;25.67;;;;;;;;;;747009;186;916719;-67
2021/06/25 04:24:22;;;;;;;36.83;24.70;;;;;;;;;;749408;186;618586;-65
2021/06/25 04:26:48;;;;;;;38.63;25.60;;;;;;;;;;743480;187;917699;-65
2021/06/25 04:29:14;;;;;;;32.90;23.70;;;;;;;;;;744669;187;618802;-65
2021/06/25 04:31:41;;;;;;;34.40;23.70;;;;;;;;;;744402;187;624947;-64
2021/06/25 04:34:05;;;;;;;31.70;22.33;;;;;;;;;;733791;189;1035117;-65
2021/06/25 04:36:31;;;;;;;37.73;23.90;;;;;;;;;;738306;187;635596;-66
2021/06/25 04:38:57;;;;;;;34.43;23.80;;;;;;;;;;740264;187;645854;-65
2021/06/25 04:41:23;;;;;;;32.10;23.20;;;;;;;;;;746013;188;618351;-67
2021/06/25 04:43:49;;;;;;;33.70;22.77;;;;;;;;;;735421;188;911396;-65
2021/06/25 04:46:14;;;;;;;34.83;23.10;;;;;;;;;;737283;187;919665;-65
2021/06/25 04:48:41;;;;;;;38.10;24.80;;;;;;;;;;739125;188;918631;-67
2021/06/25 04:51:07;;;;;;;32.77;24.27;;;;;;;;;;736511;188;918841;-66
2021/06/25 04:53:33;;;;;;;35.42;25.20;;;;;;;;;;741494;187;919360;-66
2021/06/25 04:55:59;;;;;;;40.60;24.63;;;;;;;;;;747752;186;617973;-65
2021/06/25 04:58:28;;;;;;;34.67;23.53;;;;;;;;;;740950;188;635812;-66
2021/06/25 05:00:53;;;;;;;35.77;23.87;;;;;;;;;;744001;186;743248;-66
2021/06/25 05:03:19;;;;;;;31.27;23.23;;;;;;;;;;741469;186;918871;-66
2021/06/25 05:05:45;;;;;;;34.00;23.87;;;;;;;;;;744683;186;627977;-66
2021/06/25 05:08:11;;;;;;;34.87;24.13;;;;;;;;;;735446;187;918738;-65
2021/06/25 05:10:36;;;;;;;33.87;23.73;;;;;;;;;;733806;187;936255;-65
2021/06/25 05:13:02;;;;;;;31.37;22.83;;;;;;;;;;738981;187;919843;-67
2021/06/25 05:15:28;;;;;;;32.67;23.70;;;;;;;;;;737214;188;918768;-64
2021/06/25 05:17:54;;;;;;;35.13;23.30;;;;;;;;;;736557;187;919596;-66
2021/06/25 05:20:21;;;;;;;34.28;23.67;;;;;;;;;;740254;187;919148;-63
2021/06/25 05:22:46;;;;;;;31.73;25.40;;;;;;;;;;741169;187;920294;-66
2021/06/25 05:25:13;;;;;;;29.83;22.73;;;;;;;;;;739658;186;918431;-65
2021/06/25 05:27:38;;;;;;;30.73;24.60;;;;;;;;;;716540;191;935396;-66
2021/06/25 05:30:05;;;;;;;32.33;22.60;;;;;;;;;;753748;186;919909;-64
2021/06/25 05:32:31;;;;;;;29.13;23.50;;;;;;;;;;744396;187;918886;-66
2021/06/25 05:34:56;;;;;;;31.70;23.77;;;;;;;;;;737994;188;926854;-64
2021/06/25 05:37:22;;;;;;;36.23;25.30;;;;;;;;;;741378;186;919134;-65
2021/06/25 05:39:49;;;;;;;40.07;25.10;;;;;;;;;;736196;187;919580;-65
2021/06/25 05:42:14;;;;;;;40.87;26.77;;;;;;;;;;735804;188;920695;-66
2021/06/25 05:44:40;;;;;;;38.53;26.60;;;;;;;;;;739108;187;918762;-66
2021/06/25 05:47:06;;;;;;;35.10;24.77;;;;;;;;;;721485;191;919371;-65
2021/06/25 05:49:32;;;;;;;27.90;21.97;;;;;;;;;;743449;185;920443;-66
2021/06/25 05:51:57;;;;;;;31.23;21.70;;;;;;;;;;732828;188;918771;-66
2021/06/25 05:54:23;;;;;;;29.17;21.30;;;;;;;;;;741481;187;919190;-64
2021/06/25 05:56:49;;;;;;;29.23;20.83;;;;;;;;;;734079;188;919462;-65
2021/06/25 05:59:15;;;;;;;29.00;21.10;;;;;;;;;;739278;186;919227;-65
2021/06/25 06:01:41;;;;;;;35.93;20.23;;;;;;;;;;737133;187;919092;-65
2021/06/25 06:04:07;;;;;;;28.10;19.70;;;;;;;;;;745947;187;918938;-65
2021/06/25 06:06:32;;;;;;;28.10;20.27;;;;;;;;;;739270;187;919380;-66
2021/06/25 06:08:58;;;;;;;27.33;20.50;;;;;;;;;;741057;187;918311;-67
2021/06/25 06:11:24;;;;;;;29.33;20.02;;;;;;;;;;735038;187;919223;-66
2021/06/25 06:13:50;;;;;;;32.30;22.27;;;;;;;;;;735410;187;919691;-65
2021/06/25 06:16:16;;;;;;;33.60;21.85;;;;;;;;;;724875;188;919099;-66
2021/06/25 06:18:46;;;;;;;33.40;21.17;;;;;;;;;;731097;191;919070;-66
2021/06/25 06:21:09;;;;;;;28.53;20.00;;;;;;;;;;712804;194;938604;-66
2021/06/25 06:31:15;;;;;;;35.03;21.53;;;;;;;;;;742251;186;919518;-65
2021/06/25 06:34:10;;;;;;;32.27;20.70;;;;;;;;;;736087;188;918431;-67
2021/06/25 06:36:23;;;;;;;37.90;21.85;;;;;;;;;;737611;187;920882;-67
2021/06/25 06:38:46;;;;;;;30.07;22.50;;;;;;;;;;746407;187;623738;-68
2021/06/25 06:41:12;;;;;;;30.00;21.30;;;;;;;;;;741841;187;918996;-65
2021/06/25 06:43:39;;;;;;;30.93;23.97;;;;;;;;;;746731;187;919294;-67
2021/06/25 06:46:03;;;;;;;29.53;22.67;;;;;;;;;;738897;188;919846;-66
2021/06/25 06:48:29;;;;;;;32.87;23.70;;;;;;;;;;740522;186;918944;-67
2021/06/25 06:50:55;;;;;;;28.70;21.70;;;;;;;;;;738175;187;919371;-66
2021/06/25 06:53:21;;;;;;;33.50;23.00;;;;;;;;;;739635;187;919358;-66
2021/06/25 06:55:47;;;;;;;38.60;22.87;;;;;;;;;;738237;187;912701;-66
2021/06/25 06:58:13;;;;;;;25.50;20.63;;;;;;;;;;736305;188;918975;-66
2021/06/25 07:00:38;;;;;;;28.73;21.40;;;;;;;;;;737692;188;919871;-66
2021/06/25 07:03:04;;;;;;;45.13;28.30;;;;;;;;;;741123;187;919058;-67
2021/06/25 07:05:30;;;;;;;29.30;22.03;;;;;;;;;;735440;187;920016;-66
2021/06/25 07:07:56;;;;;;;33.67;23.70;;;;;;;;;;745844;187;918535;-67
2021/06/25 07:10:22;;;;;;;35.07;23.87;;;;;;;;;;739767;187;919248;-66
2021/06/25 07:12:48;;;;;;;28.30;20.33;;;;;;;;;;750491;185;919322;-67
2021/06/25 07:15:13;;;;;;;36.73;26.87;;;;;;;;;;739538;186;1020881;-67
2021/06/25 07:17:39;;;;;;;31.02;23.23;;;;;;;;;;733850;188;980666;-66
2021/06/25 07:20:06;;;;;;;32.90;19.67;;;;;;;;;;742759;187;920594;-66
2021/06/25 07:22:32;;;;;;;23.60;19.00;;;;;;;;;;734055;188;919844;-66
2021/06/25 07:24:58;;;;;;;24.52;17.58;;;;;;;;;;738000;187;919171;-67
2021/06/25 07:27:23;;;;;;;24.23;15.60;;;;;;;;;;738040;187;919204;-68
2021/06/25 07:29:49;;;;;;;23.23;17.43;;;;;;;;;;734346;187;927647;-68
2021/06/25 07:32:15;;;;;;;28.83;16.90;;;;;;;;;;737243;187;918745;-65
2021/06/25 07:34:41;;;;;;;26.80;18.30;;;;;;;;;;737781;187;919265;-67
2021/06/25 07:37:07;;;;;;;29.98;19.45;;;;;;;;;;735244;190;914858;-65
2021/06/25 07:39:33;;;;;;;25.60;18.70;;;;;;;;;;735780;187;919176;-67
2021/06/25 07:41:59;;;;;;;22.93;17.47;;;;;;;;;;736630;188;921593;-67
2021/06/25 07:44:24;;;;;;;21.57;16.80;;;;;;;;;;739144;188;919435;-68
2021/06/25 07:46:50;;;;;;;23.07;16.73;;;;;;;;;;735490;186;919176;-66
2021/06/25 07:49:16;;;;;;;21.43;16.27;;;;;;;;;;738673;187;918313;-67
2021/06/25 07:51:42;;;;;;;19.77;16.43;;;;;;;;;;733463;191;918575;-69
2021/06/25 07:54:08;;;;;;;21.50;16.40;;;;;;;;;;736420;186;1021395;-67
2021/06/25 07:56:34;;;;;;;22.47;16.10;;;;;;;;;;739648;188;918945;-67
2021/06/25 07:59:00;;;;;;;23.30;16.20;;;;;;;;;;746410;186;918883;-66
2021/06/25 08:01:25;;;;;;;24.30;17.93;;;;;;;;;;733603;186;918993;-68
2021/06/25 08:03:51;;;;;;;22.37;16.77;;;;;;;;;;738760;187;919246;-65
2021/06/25 08:06:17;;;;;;;29.10;17.23;;;;;;;;;;733328;188;919396;-67
2021/06/25 08:08:43;;;;;;;23.23;17.17;;;;;;;;;;744052;187;918822;-66
2021/06/25 08:11:09;;;;;;;26.17;19.33;;;;;;;;;;734286;187;919140;-68
2021/06/25 08:13:35;;;;;;;19.80;16.47;;;;;;;;;;735731;187;930633;-67
2021/06/25 08:16:00;;;;;;;24.27;16.53;;;;;;;;;;742295;187;917594;-66
2021/06/25 08:18:26;;;;;;;28.40;18.87;;;;;;;;;;734598;187;920394;-68
2021/06/25 08:20:52;;;;;;;31.87;21.60;;;;;;;;;;735330;189;919123;-67
2021/06/25 08:23:20;;;;;;;19.03;15.70;;;;;;;;;;716109;193;919255;-69
2021/06/25 08:25:44;;;;;;;22.80;15.50;;;;;;;;;;735465;188;919755;-68
2021/06/25 08:28:11;;;;;;;21.33;17.10;;;;;;;;;;738564;187;919015;-68
2021/06/25 08:30:36;;;;;;;28.43;18.37;;;;;;;;;;744129;187;920123;-66
2021/06/25 08:33:03;;;;;;;19.60;15.33;;;;;;;;;;751107;185;919405;-68
2021/06/25 08:35:28;;;;;;;27.80;20.27;;;;;;;;;;744214;186;919242;-68
2021/06/25 08:37:54;;;;;;;30.00;20.77;;;;;;;;;;735565;190;919063;-67
2021/06/25 08:40:20;;;;;;;21.47;17.17;;;;;;;;;;724185;192;938218;-67
2021/06/25 08:42:46;;;;;;;33.70;21.17;;;;;;;;;;746379;187;919228;-68
2021/06/25 08:45:12;;;;;;;22.40;16.63;;;;;;;;;;744824;186;923955;-67
2021/06/25 08:47:41;;;;;;;22.93;17.00;;;;;;;;;;741370;187;918295;-68
2021/06/25 08:50:06;;;;;;;24.63;16.20;;;;;;;;;;738375;187;918692;-66
2021/06/25 08:52:32;;;;;;;27.27;16.60;;;;;;;;;;738388;186;869202;-66
2021/06/25 08:54:58;;;;;;;19.83;15.67;;;;;;;;;;738949;187;919153;-69
2021/06/25 08:57:24;;;;;;;21.40;16.60;;;;;;;;;;748284;186;917843;-69
2021/06/25 08:59:51;;;;;;;21.17;14.90;;;;;;;;;;748645;186;625067;-69
2021/06/25 09:02:16;;;;;;;20.83;15.10;;;;;;;;;;744627;187;918831;-68
2021/06/25 09:04:41;;;;;;;37.70;21.60;;;;;;;;;;742381;188;613733;-69
2021/06/25 09:07:08;;;;;;;17.67;15.60;;;;;;;;;;737215;187;918276;-68
2021/06/25 09:09:38;;;;;;;35.42;21.12;;;;;;;;;;741451;187;919900;-69
2021/06/25 09:12:09;;;;;;;17.48;15.63;;;;;;;;;;750108;186;924160;-67
2021/06/25 09:14:40;;;;;;;21.90;14.97;;;;;;;;;;749193;184;918951;-68
2021/06/25 09:17:06;;;;;;;18.13;14.77;;;;;;;;;;741041;186;918297;-68
2021/06/25 09:19:32;;;;;;;30.33;18.07;;;;;;;;;;736991;187;918830;-68
2021/06/25 09:21:58;;;;;;;22.63;15.30;;;;;;;;;;739514;189;917873;-68
2021/06/25 09:24:24;;;;;;;19.20;13.97;;;;;;;;;;746945;187;918209;-68
2021/06/25 09:26:50;;;;;;;26.03;18.27;;;;;;;;;;734426;188;920064;-68
2021/06/25 09:29:15;;;;;;;18.20;13.47;;;;;;;;;;735389;188;919627;-68
2021/06/25 09:31:41;;;;;;;40.87;20.83;;;;;;;;;;741716;188;901318;-68
2021/06/25 09:34:09;;;;;;;22.13;15.00;;;;;;;;;;730898;187;919340;-67
2021/06/25 09:36:33;;;;;;;19.53;14.40;;;;;;;;;;743077;186;915884;-68
2021/06/25 09:39:00;;;;;;;18.90;15.13;;;;;;;;;;740247;190;914855;-67
2021/06/25 09:41:25;;;;;;;20.90;14.47;;;;;;;;;;738387;188;917836;-67
2021/06/25 09:43:52;;;;;;;28.80;16.75;;;;;;;;;;734893;187;917213;-68
2021/06/25 09:46:18;;;;;;;18.70;13.93;;;;;;;;;;739332;187;915020;-68
2021/06/25 09:48:51;;;;;;;21.07;14.93;;;;;;;;;;733661;187;919317;-67
2021/06/25 09:51:16;;;;;;;21.50;13.73;;;;;;;;;;734012;188;919494;-68
2021/06/25 09:53:42;;;;;;;16.13;12.40;;;;;;;;;;735788;187;918933;-67
2021/06/25 09:56:08;;;;;;;17.00;12.87;;;;;;;;;;740201;188;918476;-69
2021/06/25 09:58:38;;;;;;;22.47;15.30;;;;;;;;;;738014;187;919810;-68
2021/06/25 10:03:31;;;;;;;12.97;11.30;;;;;;;;;;736195;187;922215;-68
2021/06/25 10:06:03;;;;;;;15.88;12.30;;;;;;;;;;747291;186;920483;-69
2021/06/25 10:08:29;;;;;;;14.13;12.03;;;;;;;;;;735802;187;920241;-68
2021/06/25 10:10:55;;;;;;;17.10;11.97;;;;;;;;;;739637;188;921039;-68
2021/06/25 10:13:21;;;;;;;14.00;12.17;;;;;;;;;;742681;187;918863;-67
2021/06/25 10:15:46;;;;;;;15.80;12.37;;;;;;;;;;738009;187;920703;-68
2021/06/25 10:18:12;;;;;;;17.40;10.80;;;;;;;;;;736131;187;921381;-68
2021/06/25 10:20:38;;;;;;;15.90;12.60;;;;;;;;;;742241;187;922393;-68
2021/06/25 10:23:07;;;;;;;16.93;12.70;;;;;;;;;;737792;187;919524;-70
2021/06/25 10:25:31;;;;;;;15.20;11.63;;;;;;;;;;734355;187;919110;-69
2021/06/25 10:27:58;;;;;;;17.50;12.63;;;;;;;;;;739946;187;922468;-68
2021/06/25 10:30:24;;;;;;;14.87;12.77;;;;;;;;;;737725;187;921703;-68
2021/06/25 10:32:51;;;;;;;23.10;14.43;;;;;;;;;;733791;188;921296;-69
2021/06/25 10:35:17;;;;;;;14.33;11.37;;;;;;;;;;735472;187;920129;-68
2021/06/25 10:37:45;;;;;;;14.80;12.33;;;;;;;;;;740164;187;921162;-69
2021/06/25 10:40:29;;;;;;;14.33;10.60;;;;;;;;;;745502;187;920012;-69
2021/06/25 10:42:56;;;;;;;15.50;11.70;;;;;;;;;;748884;186;919846;-69
2021/06/25 10:45:27;;;;;;;12.67;10.37;;;;;;;;;;750906;183;921961;-69
2021/06/25 10:47:55;;;;;;;14.67;12.70;;;;;;;;;;742929;186;919626;-69
2021/06/25 10:50:20;;;;;;;15.07;11.40;;;;;;;;;;739907;187;920458;-69
2021/06/25 10:53:02;;;;;;;12.77;11.40;;;;;;;;;;739015;187;907640;-69
2021/06/25 10:55:27;;;;;;;18.73;12.37;;;;;;;;;;746992;185;913537;-69
2021/06/25 10:58:08;;;;;;;18.73;12.80;;;;;;;;;;741383;186;912437;-68
2021/06/25 11:00:54;;;;;;;12.30;10.30;;;;;;;;;;739035;187;912853;-69
2021/06/25 11:03:25;;;;;;;12.27;9.57;;;;;;;;;;737868;187;913801;-72
2021/06/25 11:05:51;;;;;;;18.70;13.10;;;;;;;;;;732506;189;919160;-68
2021/06/25 11:08:19;;;;;;;13.43;12.03;;;;;;;;;;739836;187;918114;-70
2021/06/25 11:10:48;;;;;;;12.77;11.40;;;;;;;;;;737242;187;919684;-69
2021/06/25 11:13:17;;;;;;;13.93;11.33;;;;;;;;;;735603;187;918618;-69
2021/06/25 11:15:43;;;;;;;16.60;10.60;;;;;;;;;;739135;188;918389;-70
2021/06/25 11:18:18;;;;;;;19.60;11.87;;;;;;;;;;739782;187;946748;-71
2021/06/25 11:20:50;;;;;;;15.57;12.77;;;;;;;;;;753153;184;919398;-70
2021/06/25 11:23:18;;;;;;;16.40;11.80;;;;;;;;;;751328;185;918840;-69
2021/06/25 11:25:47;;;;;;;12.67;11.10;;;;;;;;;;737035;187;919094;-72
2021/06/25 11:28:15;;;;;;;23.80;11.17;;;;;;;;;;741468;187;927309;-69
2021/06/25 11:30:53;;;;;;;11.73;10.43;;;;;;;;;;744500;186;1225900;-71
2021/06/25 11:33:25;;;;;;;18.13;13.20;;;;;;;;;;746983;185;922736;-69
2021/06/25 11:35:50;;;;;;;17.13;11.57;;;;;;;;;;743453;186;919212;-71
2021/06/25 11:38:16;;;;;;;14.02;10.68;;;;;;;;;;737813;187;919038;-68
2021/06/25 11:40:45;;;;;;;17.00;13.33;;;;;;;;;;748301;186;917593;-69
2021/06/25 11:43:11;;;;;;;15.73;11.30;;;;;;;;;;737702;188;919322;-70
2021/06/25 11:45:37;;;;;;;14.80;11.70;;;;;;;;;;744344;186;918449;-69
2021/06/25 11:48:03;;;;;;;18.83;13.97;;;;;;;;;;742704;188;924315;-70
2021/06/25 11:50:29;;;;;;;13.40;11.80;;;;;;;;;;737488;188;918736;-70
2021/06/25 11:52:56;;;;;;;17.13;13.63;;;;;;;;;;735299;187;918580;-69
2021/06/25 11:55:21;;;;;;;18.23;12.37;;;;;;;;;;735846;188;919017;-70
2021/06/25 11:57:46;;;;;;;13.17;11.30;;;;;;;;;;735062;187;1020010;-69
2021/06/25 12:00:15;;;;;;;13.73;11.47;;;;;;;;;;730860;186;1029096;-71
2021/06/25 12:02:41;;;;;;;16.97;11.83;;;;;;;;;;734003;187;920020;-72
2021/06/25 12:05:08;;;;;;;12.50;10.25;;;;;;;;;;738934;188;919294;-70
2021/06/25 12:07:33;;;;;;;15.70;13.60;;;;;;;;;;732566;187;919200;-71
2021/06/25 12:09:59;;;;;;;13.57;10.97;;;;;;;;;;729696;189;919538;-71
2021/06/25 12:12:25;;;;;;;16.30;11.87;;;;;;;;;;743694;186;918880;-69
2021/06/25 12:14:51;;;;;;;11.87;10.67;;;;;;;;;;746646;183;886033;-67
2021/06/25 12:17:17;;;;;;;17.47;10.87;;;;;;;;;;741687;186;919866;-64
2021/06/25 12:19:49;;;;;;;13.43;10.73;;;;;;;;;;744735;187;630527;-62
2021/06/25 12:22:15;;;;;;;14.80;13.00;;;;;;;;;;750325;186;618406;-61
2021/06/25 12:24:50;;;;;;;17.80;12.10;;;;;;;;;;736119;188;917173;-63
2021/06/25 12:27:19;;;;;;;11.10;7.57;;;;;;;;;;733898;186;916949;-64
2021/06/25 12:29:45;;;;;;;9.90;5.10;;;;;;;;;;735282;187;948582;-68
2021/06/25 12:32:12;;;;;;;9.10;6.43;;;;;;;;;;737275;188;916568;-63
2021/06/25 12:34:38;;;;;;;8.53;5.87;;;;;;;;;;737736;187;916353;-62
2021/06/25 12:37:04;;;;;;;7.77;5.50;;;;;;;;;;735830;187;916131;-63
2021/06/25 12:39:30;;;;;;;8.77;5.80;;;;;;;;;;737028;187;915667;-64
2021/06/25 12:42:00;;;;;;;8.17;6.33;;;;;;;;;;742252;187;915477;-64
2021/06/25 12:44:22;;;;;;;7.00;6.27;;;;;;;;;;722963;193;919864;-66
2021/06/25 12:46:47;;;;;;;7.50;6.43;;;;;;;;;;712995;194;920186;-67
2021/06/25 12:49:13;;;;;;;8.70;5.87;;;;;;;;;;716670;193;919433;-69
2021/06/25 12:51:39;;;;;;;11.27;6.57;;;;;;;;;;736824;187;918283;-69
2021/06/25 12:54:05;;;;;;;9.27;6.47;;;;;;;;;;735634;187;919148;-68
2021/06/25 12:56:36;;;;;;;6.30;5.70;;;;;;;;;;739565;188;919485;-68
2021/06/25 12:59:02;;;;;;;9.00;5.40;;;;;;;;;;743378;187;929050;-69
2021/06/25 13:01:34;;;;;;;6.95;6.25;;;;;;;;;;732369;188;917558;-68
2021/06/25 13:04:00;;;;;;;7.23;5.70;;;;;;;;;;733875;187;918591;-68
2021/06/25 13:06:27;;;;;;;6.57;5.10;;;;;;;;;;737530;188;919112;-68
2021/06/25 13:08:53;;;;;;;7.32;6.47;;;;;;;;;;734378;187;918910;-67
2021/06/25 13:11:19;;;;;;;7.83;6.10;;;;;;;;;;735718;187;919290;-69
2021/06/25 13:13:45;;;;;;;9.67;5.67;;;;;;;;;;748711;187;929336;-68
2021/06/25 13:16:12;;;;;;;9.77;7.47;;;;;;;;;;728509;188;919468;-68
2021/06/25 13:18:38;;;;;;;7.57;6.50;;;;;;;;;;738268;188;941000;-68
2021/06/25 13:21:10;;;;;;;15.88;7.12;;;;;;;;;;738015;187;918853;-68
2021/06/25 13:23:36;;;;;;;12.30;8.50;;;;;;;;;;733369;187;918790;-68
2021/06/25 13:26:05;;;;;;;12.50;8.63;;;;;;;;;;743517;187;919150;-67
2021/06/25 13:28:30;;;;;;;12.67;9.20;;;;;;;;;;735378;187;919296;-66
2021/06/25 13:31:01;;;;;;;12.10;10.80;;;;;;;;;;743997;187;719319;-66
2021/06/25 13:33:27;;;;;;;13.83;12.33;;;;;;;;;;738407;188;919068;-66
2021/06/25 13:35:53;;;;;;;17.07;12.33;;;;;;;;;;737374;187;919028;-68
2021/06/25 13:38:23;;;;;;;15.63;13.73;;;;;;;;;;743895;186;918617;-68
2021/06/25 13:40:49;;;;;;;15.23;12.33;;;;;;;;;;737305;188;918231;-67
2021/06/25 13:43:15;;;;;;;21.80;15.27;;;;;;;;;;753263;186;920635;-68
2021/06/25 13:45:41;;;;;;;18.83;13.87;;;;;;;;;;741427;187;919859;-68
2021/06/25 13:48:12;;;;;;;20.60;16.63;;;;;;;;;;738004;187;918692;-68
2021/06/25 13:50:42;;;;;;;17.43;15.73;;;;;;;;;;740452;187;937394;-67
2021/06/25 13:53:08;;;;;;;18.75;15.60;;;;;;;;;;735428;187;919491;-67
2021/06/25 13:55:34;;;;;;;17.17;15.23;;;;;;;;;;746534;187;817214;-67
2021/06/25 13:58:00;;;;;;;19.03;14.37;;;;;;;;;;735063;187;920162;-69
2021/06/25 14:00:26;;;;;;;18.63;14.40;;;;;;;;;;740308;187;919606;-69
2021/06/25 14:02:52;;;;;;;20.73;13.00;;;;;;;;;;739843;187;919020;-67
2021/06/25 14:05:18;;;;;;;16.17;12.88;;;;;;;;;;736951;187;919631;-67
2021/06/25 14:07:50;;;;;;;19.40;13.00;;;;;;;;;;740022;188;919561;-67
2021/06/25 14:10:16;;;;;;;17.77;13.43;;;;;;;;;;735218;187;919437;-68
2021/06/25 14:12:42;;;;;;;19.87;15.50;;;;;;;;;;735514;188;919515;-68